Time;durP1;ratioP1;P1;durP2;ratioP2;P2;SDS_P1;SDS_P2;PMS_P1;PMS_P2;Temp;Humidity;BMP_temperature;BMP_pressure;BME280_temperature;BME280_humidity;BME280_pressure;Samples;Min_cycle;Max_cycle;Signal;HPM_P1;HPM_P2
2021/03/16 00:00:50;;;;;;;4.20;1.47;;;8.10;99.90;;;;;;5105142;27;20473;-81
2021/03/16 00:03:19;;;;;;;5.03;1.53;;;8.10;99.90;;;;;;5127297;27;20529;-79
2021/03/16 00:05:47;;;;;;;4.03;1.20;;;8.10;99.90;;;;;;5133941;27;20465;-79
2021/03/16 00:08:14;;;;;;;3.73;2.40;;;8.10;99.90;;;;;;5107799;27;20610;-78
2021/03/16 00:10:41;;;;;;;4.50;1.60;;;8.10;99.90;;;;;;5103609;27;20475;-80
2021/03/16 00:13:09;;;;;;;2.20;1.63;;;8.30;99.90;;;;;;5123101;27;20461;-81
2021/03/16 00:15:36;;;;;;;2.93;1.90;;;8.10;99.90;;;;;;5106302;27;20556;-80
2021/03/16 00:18:04;;;;;;;2.23;1.17;;;8.10;99.90;;;;;;5116559;27;20492;-81
2021/03/16 00:20:32;;;;;;;2.17;1.50;;;8.00;99.90;;;;;;5123301;27;20481;-81
2021/03/16 00:23:00;;;;;;;1.60;1.50;;;7.90;99.90;;;;;;5107613;27;20460;-80
2021/03/16 00:25:27;;;;;;;1.80;1.50;;;7.90;99.90;;;;;;5123799;27;20472;-79
2021/03/16 00:27:54;;;;;;;4.10;1.30;;;7.90;99.90;;;;;;5106510;27;20480;-80
2021/03/16 00:30:22;;;;;;;4.10;1.80;;;7.90;99.90;;;;;;5122102;27;20483;-80
2021/03/16 00:32:49;;;;;;;4.27;1.47;;;7.80;99.90;;;;;;5123824;27;20520;-78
2021/03/16 00:35:16;;;;;;;2.80;1.40;;;7.80;99.90;;;;;;5126221;27;20814;-78
2021/03/16 00:37:43;;;;;;;3.20;1.90;;;7.80;99.90;;;;;;5120480;27;20882;-77
2021/03/16 00:40:12;;;;;;;1.90;1.40;;;7.80;99.90;;;;;;5122009;27;20485;-80
2021/03/16 00:42:39;;;;;;;3.13;1.60;;;7.80;99.90;;;;;;5124625;27;20460;-79
2021/03/16 00:45:09;;;;;;;4.57;2.08;;;7.90;99.90;;;;;;5113316;27;20460;-78
2021/03/16 00:47:36;;;;;;;3.30;1.50;;;7.90;99.90;;;;;;5120871;27;20194;-78
2021/03/16 00:50:06;;;;;;;2.47;1.20;;;7.90;99.90;;;;;;5107093;27;20457;-78
2021/03/16 00:52:33;;;;;;;2.30;1.50;;;7.90;99.90;;;;;;5127840;27;20459;-82
2021/03/16 00:55:00;;;;;;;3.10;1.57;;;8.00;99.90;;;;;;5124214;27;20478;-80
2021/03/16 00:57:28;;;;;;;1.23;1.07;;;8.00;99.90;;;;;;5123660;27;20507;-81
2021/03/16 00:59:55;;;;;;;2.37;1.17;;;8.00;99.90;;;;;;5107983;28;20480;-80
2021/03/16 01:02:32;;;;;;;2.90;1.80;;;8.00;99.90;;;;;;5126251;27;20550;-79
2021/03/16 01:05:00;;;;;;;4.00;2.00;;;8.00;99.90;;;;;;5117102;27;20462;-79
2021/03/16 01:07:27;;;;;;;1.67;1.20;;;7.90;99.90;;;;;;5133305;27;20813;-79
2021/03/16 01:09:54;;;;;;;2.50;1.97;;;7.90;99.90;;;;;;5130338;27;20192;-80
2021/03/16 01:12:21;;;;;;;2.13;1.87;;;8.20;99.90;;;;;;5103039;27;20467;-81
2021/03/16 01:14:49;;;;;;;2.23;1.77;;;7.80;99.90;;;;;;5132333;27;20467;-78
2021/03/16 01:17:17;;;;;;;2.43;1.60;;;7.70;99.90;;;;;;5110286;27;20463;-80
2021/03/16 01:19:44;;;;;;;2.97;1.30;;;7.80;99.90;;;;;;5128768;27;20489;-84
2021/03/16 01:22:11;;;;;;;3.73;1.20;;;7.80;99.90;;;;;;5109244;27;20471;-81
2021/03/16 01:24:38;;;;;;;5.00;1.75;;;7.80;99.90;;;;;;5103918;27;20481;-81
2021/03/16 01:27:06;;;;;;;1.63;1.33;;;7.80;99.90;;;;;;5122625;27;20205;-80
2021/03/16 01:29:33;;;;;;;1.90;1.40;;;7.70;99.90;;;;;;5121985;27;20221;-81
2021/03/16 01:32:01;;;;;;;1.60;1.50;;;7.70;99.90;;;;;;5115830;27;20495;-81
2021/03/16 01:34:28;;;;;;;3.38;1.20;;;7.70;99.90;;;;;;5132678;27;20249;-79
2021/03/16 01:36:55;;;;;;;2.13;1.40;;;7.70;99.90;;;;;;5118323;27;22285;-83
2021/03/16 01:39:23;;;;;;;6.47;2.08;;;7.80;99.90;;;;;;5098126;28;22172;-81
2021/03/16 01:41:50;;;;;;;1.73;1.30;;;7.80;99.90;;;;;;5101435;27;21539;-81
2021/03/16 01:44:17;;;;;;;6.17;1.50;;;8.00;99.90;;;;;;5128643;27;20521;-81
2021/03/16 01:46:44;;;;;;;1.75;1.20;;;7.90;99.90;;;;;;5102393;27;20867;-80
2021/03/16 01:49:13;;;;;;;3.75;1.40;;;7.80;99.90;;;;;;5095377;27;20323;-79
2021/03/16 01:51:40;;;;;;;2.80;1.90;;;7.80;99.90;;;;;;5100356;27;20847;-79
2021/03/16 01:54:08;;;;;;;6.20;1.30;;;8.00;99.90;;;;;;5118338;27;20972;-81
2021/03/16 01:56:38;;;;;;;1.83;1.50;;;7.70;99.90;;;;;;5118368;27;20466;-81
2021/03/16 01:59:06;;;;;;;1.88;1.48;;;7.80;99.90;;;;;;5100696;27;20564;-80
2021/03/16 02:01:33;;;;;;;7.38;1.80;;;7.70;99.90;;;;;;5122898;27;20190;-80
2021/03/16 02:04:00;;;;;;;4.20;1.67;;;7.80;99.90;;;;;;5102690;28;20189;-80
2021/03/16 02:06:40;;;;;;;4.93;1.65;;;7.80;99.90;;;;;;5121981;27;20210;-80
2021/03/16 02:09:12;;;;;;;3.00;1.83;;;7.70;99.90;;;;;;5110942;27;20588;-80
2021/03/16 02:11:44;;;;;;;3.55;1.80;;;7.80;99.90;;;;;;5115562;27;20552;-83
2021/03/16 02:14:17;;;;;;;3.42;1.60;;;7.70;99.90;;;;;;5098907;28;20228;-81
2021/03/16 02:16:53;;;;;;;4.57;3.40;;;7.70;99.90;;;;;;5130412;27;20223;-82
2021/03/16 02:19:52;;;;;;;3.30;1.75;;;7.70;99.90;;;;;;5116471;27;20570;-81
2021/03/16 02:22:21;;;;;;;2.30;1.70;;;7.70;99.90;;;;;;5106652;27;20219;-81
2021/03/16 02:25:06;;;;;;;3.20;1.48;;;7.80;99.90;;;;;;5122623;28;20278;-82
2021/03/16 02:27:50;;;;;;;3.95;1.65;;;7.70;99.90;;;;;;5112233;28;20299;-80
2021/03/16 02:30:19;;;;;;;2.63;1.57;;;7.80;99.90;;;;;;5118393;28;20217;-80
2021/03/16 02:32:47;;;;;;;1.63;1.53;;;7.70;99.90;;;;;;5115450;28;20456;-80
2021/03/16 02:35:16;;;;;;;4.13;1.77;;;7.70;99.90;;;;;;5122651;28;20454;-81
2021/03/16 02:37:45;;;;;;;3.53;1.30;;;7.80;99.90;;;;;;5117228;28;20934;-80
2021/03/16 02:40:16;;;;;;;2.20;1.33;;;7.80;99.90;;;;;;5123176;28;20217;-80
2021/03/16 02:42:45;;;;;;;3.45;1.63;;;7.70;99.90;;;;;;5105491;28;20462;-82
2021/03/16 02:45:13;;;;;;;3.78;1.70;;;7.80;99.90;;;;;;5122517;28;20198;-80
2021/03/16 02:47:43;;;;;;;4.88;1.70;;;7.70;99.90;;;;;;5103936;28;20541;-82
2021/03/16 02:50:12;;;;;;;2.17;1.93;;;7.80;99.90;;;;;;5108791;28;20193;-81
2021/03/16 02:52:55;;;;;;;1.83;1.67;;;7.70;99.90;;;;;;5115279;28;20541;-81
2021/03/16 02:55:23;;;;;;;5.70;1.45;;;7.60;99.90;;;;;;5121818;28;20203;-82
2021/03/16 02:57:51;;;;;;;5.13;2.27;;;7.60;99.90;;;;;;5121156;27;20239;-80
2021/03/16 03:00:19;;;;;;;7.60;1.80;;;7.70;99.90;;;;;;5105399;28;21023;-82
2021/03/16 03:02:51;;;;;;;3.15;1.70;;;7.70;99.90;;;;;;5120865;28;20203;-80
2021/03/16 03:05:20;;;;;;;4.03;1.35;;;8.00;99.90;;;;;;5106700;28;20200;-80
2021/03/16 03:07:48;;;;;;;3.85;2.10;;;7.60;99.90;;;;;;5099547;27;20228;-81
2021/03/16 03:10:15;;;;;;;1.77;1.40;;;7.60;99.90;;;;;;5134048;27;20237;-81
2021/03/16 03:12:42;;;;;;;1.98;1.70;;;7.60;99.90;;;;;;5125551;27;20214;-80
2021/03/16 03:15:10;;;;;;;1.85;1.65;;;7.60;99.90;;;;;;5098761;27;20279;-81
2021/03/16 03:17:37;;;;;;;2.65;1.80;;;7.60;99.90;;;;;;5106467;27;20211;-81
2021/03/16 03:20:07;;;;;;;1.30;1.20;;;7.60;99.90;;;;;;5116888;27;20317;-80
2021/03/16 03:22:42;;;;;;;4.82;1.40;;;7.60;99.90;;;;;;5120660;27;20208;-78
2021/03/16 03:25:16;;;;;;;2.08;1.85;;;7.60;99.90;;;;;;5123084;27;20740;-79
2021/03/16 03:27:48;;;;;;;2.42;1.60;;;7.60;99.90;;;;;;5122295;27;20292;-82
2021/03/16 03:30:19;;;;;;;3.58;2.05;;;7.60;99.90;;;;;;5127955;27;20225;-81
2021/03/16 03:32:46;;;;;;;1.90;1.25;;;7.50;99.90;;;;;;5100324;27;20222;-79
2021/03/16 03:35:16;;;;;;;2.95;1.30;;;7.60;99.90;;;;;;5117153;27;20213;-80
2021/03/16 03:37:47;;;;;;;3.67;1.58;;;7.70;99.90;;;;;;5118549;27;20261;-79
2021/03/16 03:40:16;;;;;;;2.08;1.58;;;7.60;99.90;;;;;;5105419;27;20634;-80
2021/03/16 03:42:44;;;;;;;3.47;1.75;;;7.60;99.90;;;;;;5132294;27;20255;-79
2021/03/16 03:45:14;;;;;;;1.52;1.42;;;7.50;99.90;;;;;;5114373;27;20203;-81
2021/03/16 03:47:43;;;;;;;5.55;1.30;;;7.50;99.90;;;;;;5117357;27;20232;-80
2021/03/16 03:50:14;;;;;;;3.10;1.73;;;7.60;99.90;;;;;;5118807;27;20278;-79
2021/03/16 03:52:43;;;;;;;5.33;1.80;;;7.50;99.90;;;;;;5109586;28;20208;-80
2021/03/16 03:55:12;;;;;;;2.42;1.60;;;7.60;99.90;;;;;;5128966;27;20471;-79
2021/03/16 03:57:54;;;;;;;3.80;1.60;;;7.50;99.90;;;;;;5115583;27;20226;-80
2021/03/16 04:00:22;;;;;;;2.53;1.25;;;7.60;99.90;;;;;;5106504;27;20232;-81
2021/03/16 04:02:51;;;;;;;2.00;1.53;;;7.70;99.90;;;;;;5122861;27;20208;-83
2021/03/16 04:05:20;;;;;;;2.83;1.30;;;7.60;99.90;;;;;;5132980;27;20463;-82
2021/03/16 04:07:48;;;;;;;2.63;1.30;;;7.60;99.90;;;;;;5128682;27;20489;-81
2021/03/16 04:10:16;;;;;;;6.63;1.70;;;7.60;99.90;;;;;;5111335;28;20463;-81
2021/03/16 04:12:44;;;;;;;3.97;1.70;;;7.60;99.90;;;;;;5125252;27;20202;-81
2021/03/16 04:15:14;;;;;;;1.58;1.30;;;7.60;99.90;;;;;;5115431;27;20483;-80
2021/03/16 04:17:44;;;;;;;2.17;1.27;;;7.60;99.90;;;;;;5121354;27;20196;-79
2021/03/16 04:20:14;;;;;;;4.72;1.88;;;7.60;99.90;;;;;;5127177;27;20821;-79
2021/03/16 04:22:43;;;;;;;1.13;1.02;;;7.60;99.90;;;;;;5120511;27;20576;-79
2021/03/16 04:25:11;;;;;;;4.75;1.65;;;7.50;99.90;;;;;;5126935;27;20201;-80
2021/03/16 04:27:38;;;;;;;8.27;1.95;;;7.50;99.90;;;;;;5129923;27;20202;-79
2021/03/16 04:30:07;;;;;;;4.13;3.72;;;7.60;99.90;;;;;;5130951;27;20202;-81
2021/03/16 04:32:35;;;;;;;2.15;1.50;;;7.50;99.90;;;;;;5113311;27;20208;-79
2021/03/16 04:35:03;;;;;;;2.50;1.33;;;7.50;99.90;;;;;;5114906;27;20198;-80
2021/03/16 04:37:30;;;;;;;3.80;1.20;;;7.50;99.90;;;;;;5124372;27;20454;-80
2021/03/16 04:39:58;;;;;;;2.45;1.10;;;7.50;99.90;;;;;;5119145;27;20278;-76
2021/03/16 04:42:25;;;;;;;5.90;1.27;;;7.40;99.90;;;;;;5120585;27;20461;-80
2021/03/16 04:44:52;;;;;;;3.13;1.33;;;7.40;99.90;;;;;;5119479;27;20420;-81
2021/03/16 04:47:19;;;;;;;4.30;1.17;;;7.40;99.90;;;;;;5120395;27;21009;-83
2021/03/16 04:49:47;;;;;;;3.70;1.58;;;7.40;99.90;;;;;;5116257;27;20258;-79
2021/03/16 04:52:14;;;;;;;4.00;1.15;;;7.50;99.90;;;;;;5099994;27;21386;-84
2021/03/16 04:54:41;;;;;;;2.92;1.85;;;7.50;99.90;;;;;;5102234;27;20289;-81
2021/03/16 04:57:10;;;;;;;1.50;1.40;;;7.50;99.90;;;;;;5122908;27;20665;-81
2021/03/16 04:59:37;;;;;;;2.97;1.13;;;7.40;99.90;;;;;;5118265;27;20229;-80
2021/03/16 05:02:04;;;;;;;2.13;1.10;;;7.40;99.90;;;;;;5102154;27;20223;-79
2021/03/16 05:04:31;;;;;;;2.05;1.10;;;7.40;99.90;;;;;;5119970;27;20454;-79
2021/03/16 05:06:59;;;;;;;1.73;1.10;;;7.30;99.90;;;;;;5111843;27;20237;-75
2021/03/16 05:09:26;;;;;;;1.85;1.10;;;7.50;99.90;;;;;;5124378;27;20860;-76
2021/03/16 05:11:53;;;;;;;3.10;1.48;;;7.40;99.90;;;;;;5110209;27;20202;-81
2021/03/16 05:14:21;;;;;;;4.00;1.37;;;7.50;99.90;;;;;;5112118;27;20219;-81
2021/03/16 05:16:48;;;;;;;3.50;1.95;;;7.40;99.90;;;;;;5113207;27;20531;-79
2021/03/16 05:19:16;;;;;;;4.70;1.27;;;7.50;99.90;;;;;;5094355;27;20337;-83
2021/03/16 05:21:43;;;;;;;3.22;1.30;;;7.50;99.90;;;;;;5123844;27;20484;-84
2021/03/16 05:24:11;;;;;;;6.10;1.70;;;7.50;99.90;;;;;;5100138;27;20209;-80
2021/03/16 05:26:38;;;;;;;2.65;1.20;;;7.40;99.90;;;;;;5128855;27;20542;-82
2021/03/16 05:29:05;;;;;;;2.55;1.40;;;7.50;99.90;;;;;;5117636;27;20249;-75
2021/03/16 05:31:33;;;;;;;3.57;1.87;;;7.50;99.90;;;;;;5127645;27;20288;-78
2021/03/16 05:34:01;;;;;;;2.80;1.40;;;7.70;99.90;;;;;;5115318;27;20465;-79
2021/03/16 05:36:28;;;;;;;4.10;1.80;;;7.50;99.90;;;;;;5125670;27;20474;-78
2021/03/16 05:38:55;;;;;;;1.63;1.00;;;7.40;99.90;;;;;;5122355;27;20252;-78
2021/03/16 05:41:23;;;;;;;1.92;1.30;;;7.40;99.90;;;;;;5130537;27;20229;-80
2021/03/16 05:43:51;;;;;;;1.57;1.10;;;7.50;99.90;;;;;;5119377;27;20417;-79
2021/03/16 05:46:18;;;;;;;3.20;1.08;;;7.50;99.90;;;;;;5104802;27;20975;-79
2021/03/16 05:48:49;;;;;;;1.63;1.00;;;7.50;99.90;;;;;;5112711;27;20295;-80
2021/03/16 05:51:17;;;;;;;4.60;1.37;;;7.50;99.90;;;;;;5116248;27;20453;-79
2021/03/16 05:53:49;;;;;;;2.45;1.38;;;7.50;99.90;;;;;;5114145;27;20894;-78
2021/03/16 05:56:16;;;;;;;2.75;1.30;;;7.50;99.90;;;;;;5123145;27;20252;-78
2021/03/16 05:58:44;;;;;;;3.28;1.30;;;7.40;99.90;;;;;;5124504;27;20226;-79
2021/03/16 06:01:13;;;;;;;5.67;1.47;;;7.40;99.90;;;;;;5122584;27;20223;-79
2021/03/16 06:03:40;;;;;;;4.82;1.70;;;7.50;99.90;;;;;;5109712;27;20485;-79
2021/03/16 06:06:10;;;;;;;2.47;1.30;;;7.90;99.90;;;;;;5103947;28;20732;-78
2021/03/16 06:08:37;;;;;;;4.72;1.92;;;7.40;99.90;;;;;;5102080;27;20456;-79
2021/03/16 06:11:06;;;;;;;5.60;1.80;;;7.40;99.90;;;;;;5104331;27;20448;-78
2021/03/16 06:13:34;;;;;;;2.43;1.20;;;8.00;99.90;;;;;;5101349;27;20377;-78
2021/03/16 06:16:12;;;;;;;3.03;1.37;;;7.40;99.90;;;;;;5115107;27;20514;-79
2021/03/16 06:18:45;;;;;;;2.23;1.07;;;7.50;99.90;;;;;;5118570;27;21159;-78
2021/03/16 06:21:18;;;;;;;1.73;1.17;;;7.50;99.90;;;;;;5111360;27;20479;-77
2021/03/16 06:23:53;;;;;;;2.77;1.87;;;7.60;99.90;;;;;;5091675;28;21057;-77
2021/03/16 06:26:23;;;;;;;2.15;1.45;;;7.50;99.90;;;;;;5115454;27;20459;-79
2021/03/16 06:28:50;;;;;;;1.80;1.10;;;7.50;99.90;;;;;;5121184;28;20300;-78
2021/03/16 06:31:24;;;;;;;2.08;1.30;;;7.50;99.90;;;;;;5125691;28;20222;-77
2021/03/16 06:33:52;;;;;;;2.00;1.17;;;7.80;99.90;;;;;;5114940;28;20225;-76
2021/03/16 06:36:25;;;;;;;2.53;1.30;;;7.40;99.90;;;;;;5113905;28;20450;-78
2021/03/16 06:38:53;;;;;;;2.50;1.10;;;7.60;99.90;;;;;;5092354;28;20233;-78
2021/03/16 06:41:21;;;;;;;2.30;1.25;;;7.40;99.90;;;;;;5115448;28;20486;-79
2021/03/16 06:43:53;;;;;;;5.53;1.40;;;7.40;99.90;;;;;;5122382;27;20209;-79
2021/03/16 06:46:28;;;;;;;1.83;1.40;;;7.40;99.90;;;;;;5116430;27;20743;-78
2021/03/16 06:48:56;;;;;;;4.13;1.50;;;7.40;99.90;;;;;;5132714;27;20542;-79
2021/03/16 06:51:27;;;;;;;4.78;1.80;;;7.40;99.90;;;;;;5099481;27;20271;-79
2021/03/16 06:53:55;;;;;;;1.85;1.20;;;7.40;99.90;;;;;;5124492;27;21926;-78
2021/03/16 06:56:29;;;;;;;3.15;1.38;;;7.40;99.90;;;;;;5103429;27;20208;-78
2021/03/16 06:58:57;;;;;;;4.63;1.30;;;7.40;99.90;;;;;;5131287;27;20238;-78
2021/03/16 07:01:29;;;;;;;9.85;1.95;;;7.40;99.90;;;;;;5124148;27;20475;-79
2021/03/16 07:03:58;;;;;;;4.88;1.48;;;7.50;99.90;;;;;;5106053;27;20198;-78
2021/03/16 07:06:28;;;;;;;4.05;2.45;;;7.50;99.90;;;;;;5102481;27;20204;-80
2021/03/16 07:08:58;;;;;;;1.57;1.47;;;8.00;99.90;;;;;;5115930;27;20231;-79
2021/03/16 07:11:28;;;;;;;3.50;1.37;;;7.50;99.90;;;;;;5109044;28;20471;-78
2021/03/16 07:13:56;;;;;;;4.47;1.40;;;7.50;99.90;;;;;;5100993;27;20461;-78
2021/03/16 07:16:23;;;;;;;2.58;1.40;;;7.50;99.90;;;;;;5121910;27;20758;-79
2021/03/16 07:18:51;;;;;;;3.17;1.23;;;7.40;99.90;;;;;;5121605;27;20226;-79
2021/03/16 07:21:25;;;;;;;3.30;1.85;;;7.40;99.90;;;;;;5106562;27;20228;-80
2021/03/16 07:23:55;;;;;;;3.33;1.55;;;7.50;99.90;;;;;;5099091;28;20237;-79
2021/03/16 07:26:24;;;;;;;2.90;1.30;;;7.50;99.90;;;;;;5114701;27;21205;-79
2021/03/16 07:28:52;;;;;;;3.00;1.70;;;7.50;99.90;;;;;;5116186;27;20486;-81
2021/03/16 07:31:19;;;;;;;5.68;1.50;;;7.40;99.90;;;;;;5121746;27;20592;-80
2021/03/16 07:33:47;;;;;;;3.13;1.67;;;7.40;99.90;;;;;;5117346;27;20193;-76
2021/03/16 07:36:15;;;;;;;7.20;1.50;;;7.50;99.90;;;;;;5117871;27;20215;-76
2021/03/16 07:38:42;;;;;;;1.20;1.10;;;7.60;99.90;;;;;;5115634;27;20311;-79
2021/03/16 07:41:11;;;;;;;1.90;1.10;;;7.50;99.90;;;;;;5113533;27;20222;-78
2021/03/16 07:43:40;;;;;;;3.90;1.80;;;7.60;99.90;;;;;;5126659;27;20455;-79
2021/03/16 07:46:09;;;;;;;4.00;1.20;;;7.60;99.90;;;;;;5131503;27;20197;-79
2021/03/16 07:48:44;;;;;;;2.92;1.52;;;7.60;99.90;;;;;;5110040;27;20484;-77
2021/03/16 07:51:13;;;;;;;3.90;1.60;;;7.50;99.90;;;;;;5119785;27;20225;-78
2021/03/16 07:53:42;;;;;;;2.07;1.20;;;7.50;99.90;;;;;;5127613;27;20203;-78
2021/03/16 07:56:13;;;;;;;6.15;1.60;;;7.50;99.90;;;;;;5127502;27;21199;-79
2021/03/16 07:58:44;;;;;;;6.20;1.35;;;7.40;99.90;;;;;;5103724;28;20246;-79
2021/03/16 08:01:12;;;;;;;5.28;2.00;;;8.00;99.90;;;;;;5105258;27;20224;-77
2021/03/16 08:03:41;;;;;;;1.93;1.50;;;7.60;99.90;;;;;;5127110;27;20202;-78
2021/03/16 08:06:20;;;;;;;4.77;1.83;;;7.30;99.90;;;;;;5122136;27;20463;-77
2021/03/16 08:08:48;;;;;;;2.35;1.10;;;7.50;99.90;;;;;;5123718;27;20529;-77
2021/03/16 08:11:17;;;;;;;3.35;1.58;;;7.60;99.90;;;;;;5103476;28;20211;-76
2021/03/16 08:13:58;;;;;;;2.42;1.17;;;7.60;99.90;;;;;;5127468;27;20271;-76
2021/03/16 08:16:35;;;;;;;4.57;1.60;;;7.50;99.90;;;;;;5127459;27;20686;-77
2021/03/16 08:19:11;;;;;;;1.55;1.45;;;7.50;99.90;;;;;;5128935;27;20229;-75
2021/03/16 08:21:39;;;;;;;3.45;1.45;;;7.50;99.90;;;;;;5106450;27;20205;-77
2021/03/16 08:24:08;;;;;;;3.23;1.20;;;7.50;99.90;;;;;;5130433;27;20199;-76
2021/03/16 08:26:42;;;;;;;2.77;1.40;;;7.70;99.90;;;;;;5123800;27;20444;-76
2021/03/16 08:29:10;;;;;;;5.38;1.50;;;7.60;99.90;;;;;;5115260;27;20474;-77
2021/03/16 08:31:38;;;;;;;4.93;1.70;;;7.70;99.90;;;;;;5118765;27;20266;-77
2021/03/16 08:34:08;;;;;;;3.38;1.58;;;7.60;99.90;;;;;;5122422;27;20482;-75
2021/03/16 08:36:40;;;;;;;2.55;1.45;;;7.80;99.90;;;;;;5119676;27;20213;-75
2021/03/16 08:39:07;;;;;;;2.22;1.58;;;7.80;99.90;;;;;;5096902;27;20244;-76
2021/03/16 08:41:34;;;;;;;3.00;1.70;;;7.70;99.90;;;;;;5118811;27;20314;-77
2021/03/16 08:44:03;;;;;;;3.43;1.70;;;7.60;99.90;;;;;;5123732;27;20214;-78
2021/03/16 08:46:31;;;;;;;5.03;1.60;;;7.70;99.90;;;;;;5100101;27;20466;-77
2021/03/16 08:48:59;;;;;;;2.30;1.47;;;7.70;99.90;;;;;;5118813;27;20267;-77
2021/03/16 08:51:28;;;;;;;3.08;1.50;;;7.70;99.90;;;;;;5122143;27;20538;-77
2021/03/16 08:53:55;;;;;;;7.23;1.60;;;7.60;99.90;;;;;;5124491;27;20208;-77
2021/03/16 08:56:23;;;;;;;3.50;1.50;;;7.60;99.90;;;;;;5110661;27;21159;-77
2021/03/16 08:58:53;;;;;;;5.63;1.73;;;7.80;99.90;;;;;;5100090;27;21092;-77
2021/03/16 09:01:29;;;;;;;5.25;1.20;;;8.30;99.90;;;;;;5120467;27;20214;-77
2021/03/16 09:04:09;;;;;;;2.97;1.60;;;8.30;99.90;;;;;;5113757;27;20302;-78
2021/03/16 09:06:37;;;;;;;5.57;2.00;;;7.90;99.90;;;;;;5115471;27;20464;-79
2021/03/16 09:09:05;;;;;;;4.80;1.70;;;7.80;99.90;;;;;;5100914;27;20546;-76
2021/03/16 09:11:35;;;;;;;4.13;2.17;;;7.80;99.90;;;;;;5111811;27;20776;-76
2021/03/16 09:14:10;;;;;;;1.45;1.23;;;7.70;99.90;;;;;;5125723;27;20207;-77
2021/03/16 09:16:43;;;;;;;7.85;1.70;;;7.80;99.90;;;;;;5120612;27;20201;-77
2021/03/16 09:19:12;;;;;;;5.13;1.70;;;7.80;99.90;;;;;;5098953;27;20235;-78
2021/03/16 09:21:52;;;;;;;9.02;2.00;;;7.60;99.90;;;;;;5125295;27;20481;-78
2021/03/16 09:24:22;;;;;;;3.60;1.50;;;7.50;99.90;;;;;;5127162;27;20232;-77
2021/03/16 09:26:57;;;;;;;4.32;1.67;;;8.00;99.90;;;;;;5104562;27;20856;-78
2021/03/16 09:29:26;;;;;;;7.13;1.80;;;7.60;99.90;;;;;;5121603;27;20222;-77
2021/03/16 09:32:04;;;;;;;2.90;1.70;;;7.70;99.90;;;;;;5124870;27;20207;-78
2021/03/16 09:34:34;;;;;;;2.60;1.30;;;7.70;99.90;;;;;;5096037;28;20481;-77
2021/03/16 09:37:04;;;;;;;5.33;2.23;;;7.70;99.90;;;;;;5118615;27;20470;-78
2021/03/16 09:39:31;;;;;;;4.32;1.60;;;7.60;99.90;;;;;;5120934;27;21097;-78
2021/03/16 09:42:00;;;;;;;5.13;1.87;;;7.60;99.90;;;;;;5122117;27;20315;-79
2021/03/16 09:44:35;;;;;;;4.70;1.70;;;7.70;99.90;;;;;;5124450;27;20970;-78
2021/03/16 09:47:04;;;;;;;5.30;2.40;;;7.60;99.90;;;;;;5117366;27;20579;-77
2021/03/16 09:49:34;;;;;;;5.03;2.45;;;7.50;99.90;;;;;;5106201;27;20624;-77
2021/03/16 09:52:06;;;;;;;5.70;2.00;;;7.50;99.90;;;;;;5127929;27;20196;-78
2021/03/16 09:54:41;;;;;;;2.38;1.55;;;7.50;99.90;;;;;;5128720;27;20204;-78
2021/03/16 09:57:09;;;;;;;1.77;1.63;;;7.60;99.90;;;;;;5105502;27;20600;-78
2021/03/16 09:59:39;;;;;;;4.88;2.20;;;7.70;99.90;;;;;;5121131;27;20226;-79
2021/03/16 10:02:07;;;;;;;2.30;1.70;;;7.80;99.90;;;;;;5104077;27;20226;-78
2021/03/16 10:04:46;;;;;;;5.90;1.90;;;7.80;99.90;;;;;;5124906;27;20963;-76
2021/03/16 10:07:24;;;;;;;5.40;2.60;;;7.80;99.90;;;;;;5106744;27;20509;-77
2021/03/16 10:09:51;;;;;;;3.08;2.05;;;7.80;99.90;;;;;;5121383;27;20499;-77
2021/03/16 10:12:20;;;;;;;5.33;2.27;;;8.00;99.90;;;;;;5128938;27;20623;-76
2021/03/16 10:14:49;;;;;;;4.80;2.00;;;7.80;99.90;;;;;;5108325;27;20468;-76
2021/03/16 10:17:33;;;;;;;7.25;2.50;;;7.80;99.90;;;;;;5119410;27;20543;-77
2021/03/16 10:20:04;;;;;;;8.23;2.33;;;7.80;99.90;;;;;;5101509;27;20204;-76
2021/03/16 10:22:33;;;;;;;4.13;2.27;;;7.80;99.90;;;;;;5115523;27;21086;-76
2021/03/16 10:25:03;;;;;;;8.03;2.13;;;8.00;99.90;;;;;;5100121;28;20471;-78
2021/03/16 10:27:31;;;;;;;4.37;2.00;;;8.00;99.90;;;;;;5111624;28;20458;-76
2021/03/16 10:30:03;;;;;;;3.97;1.97;;;8.10;99.90;;;;;;5122506;28;20525;-78
2021/03/16 10:32:31;;;;;;;5.63;1.83;;;8.20;99.90;;;;;;5103578;28;20829;-76
2021/03/16 10:34:59;;;;;;;7.93;2.23;;;8.00;99.90;;;;;;5109436;27;20460;-77
2021/03/16 10:37:27;;;;;;;4.78;1.77;;;8.00;99.90;;;;;;5124562;28;20460;-78
2021/03/16 10:39:55;;;;;;;17.63;3.33;;;8.10;99.90;;;;;;5126169;28;20205;-77
2021/03/16 10:42:22;;;;;;;3.43;1.97;;;8.10;99.90;;;;;;5109584;28;20483;-76
2021/03/16 10:44:50;;;;;;;5.63;2.43;;;8.20;99.90;;;;;;5102698;28;20591;-77
2021/03/16 10:47:17;;;;;;;3.92;2.13;;;8.20;99.90;;;;;;5125166;28;20517;-76
2021/03/16 10:49:45;;;;;;;4.83;1.80;;;8.30;99.90;;;;;;5118070;28;20220;-76
2021/03/16 10:52:13;;;;;;;10.37;2.57;;;8.30;99.90;;;;;;5121070;27;20461;-77
2021/03/16 10:54:40;;;;;;;4.97;2.23;;;8.30;99.90;;;;;;5126980;28;20472;-78
2021/03/16 10:57:08;;;;;;;6.40;3.00;;;8.20;99.90;;;;;;5122218;28;20463;-78
2021/03/16 10:59:35;;;;;;;6.00;2.13;;;8.10;99.90;;;;;;5103588;28;20491;-78
2021/03/16 11:02:03;;;;;;;4.33;1.90;;;8.10;99.90;;;;;;5124483;28;20467;-77
2021/03/16 11:04:31;;;;;;;7.00;2.40;;;8.20;99.90;;;;;;5133800;27;20444;-79
2021/03/16 11:06:59;;;;;;;3.57;1.50;;;8.40;99.90;;;;;;5120157;28;20467;-78
2021/03/16 11:09:26;;;;;;;5.70;2.10;;;8.20;99.90;;;;;;5126706;27;20547;-77
2021/03/16 11:11:53;;;;;;;5.73;2.00;;;8.50;99.90;;;;;;5116412;28;20448;-79
2021/03/16 11:14:21;;;;;;;4.20;1.70;;;8.50;99.90;;;;;;5102581;28;21494;-77
2021/03/16 11:16:48;;;;;;;3.80;1.77;;;8.50;99.90;;;;;;5122695;28;20562;-77
2021/03/16 11:19:16;;;;;;;3.83;2.53;;;8.60;99.90;;;;;;5104391;28;20482;-79
2021/03/16 11:21:43;;;;;;;3.77;1.87;;;8.60;99.90;;;;;;5121198;28;20946;-79
2021/03/16 11:24:12;;;;;;;3.07;1.40;;;8.60;99.90;;;;;;5120069;28;20463;-76
2021/03/16 11:26:39;;;;;;;2.93;1.67;;;8.70;99.90;;;;;;5120445;27;20878;-78
2021/03/16 11:29:06;;;;;;;5.57;1.50;;;8.60;99.90;;;;;;5102381;27;20479;-77
2021/03/16 11:31:33;;;;;;;3.13;1.60;;;8.60;99.90;;;;;;5128236;27;20594;-78
2021/03/16 11:34:01;;;;;;;2.57;1.83;;;8.50;99.90;;;;;;5122150;27;20494;-77
2021/03/16 11:36:28;;;;;;;1.50;1.30;;;8.40;99.90;;;;;;5124356;27;20459;-78
2021/03/16 11:38:55;;;;;;;7.47;1.70;;;8.60;99.90;;;;;;5121124;27;20469;-78
2021/03/16 11:41:24;;;;;;;5.00;1.93;;;8.60;99.90;;;;;;5104614;27;21355;-78
2021/03/16 11:43:51;;;;;;;1.87;1.70;;;8.50;99.90;;;;;;5131454;27;20830;-78
2021/03/16 11:46:19;;;;;;;3.53;1.53;;;8.60;99.90;;;;;;5122083;27;20475;-78
2021/03/16 11:48:46;;;;;;;2.90;1.80;;;8.60;99.90;;;;;;5126925;27;20505;-78
2021/03/16 11:51:13;;;;;;;2.73;1.50;;;8.50;99.90;;;;;;5121669;27;20455;-77
2021/03/16 11:53:41;;;;;;;2.90;1.63;;;8.50;99.90;;;;;;5128309;27;20446;-76
2021/03/16 11:56:08;;;;;;;2.90;1.87;;;8.50;99.90;;;;;;5111379;27;20822;-77
2021/03/16 11:58:36;;;;;;;4.30;1.50;;;8.40;99.90;;;;;;5123965;27;20996;-78
2021/03/16 12:01:03;;;;;;;1.50;1.20;;;8.70;99.90;;;;;;5108582;27;20474;-77
2021/03/16 12:03:31;;;;;;;2.10;1.20;;;8.60;99.90;;;;;;5107595;27;20478;-78
2021/03/16 12:05:58;;;;;;;2.10;1.33;;;8.60;99.90;;;;;;5105205;27;20473;-78
2021/03/16 12:08:25;;;;;;;4.77;1.93;;;8.50;99.90;;;;;;5121411;27;20487;-76
2021/03/16 12:10:53;;;;;;;3.27;1.57;;;8.80;99.90;;;;;;5119909;27;20455;-79
2021/03/16 12:13:20;;;;;;;2.60;1.50;;;8.60;99.90;;;;;;5104251;27;20513;-77
2021/03/16 12:15:48;;;;;;;5.37;2.07;;;8.80;99.90;;;;;;5112155;27;20457;-77
2021/03/16 12:18:15;;;;;;;4.30;1.30;;;9.00;99.90;;;;;;5131165;27;20695;-78
2021/03/16 12:20:44;;;;;;;3.70;1.80;;;8.90;99.90;;;;;;5117172;27;20452;-77
2021/03/16 12:23:11;;;;;;;3.10;1.43;;;8.80;99.90;;;;;;5109272;27;20551;-78
2021/03/16 12:25:38;;;;;;;10.63;2.67;;;8.80;99.90;;;;;;5126461;27;20454;-78
2021/03/16 12:28:06;;;;;;;7.90;1.70;;;8.70;99.90;;;;;;5108464;27;20547;-78
2021/03/16 12:30:33;;;;;;;4.60;1.20;;;8.80;99.90;;;;;;5122417;27;20440;-78
2021/03/16 12:33:02;;;;;;;5.43;2.57;;;8.80;99.90;;;;;;5125431;27;20459;-77
2021/03/16 12:35:29;;;;;;;2.00;1.20;;;8.90;99.90;;;;;;5126295;27;20480;-77
2021/03/16 12:37:57;;;;;;;3.20;1.20;;;8.90;97.10;;;;;;5122739;27;20483;-77
2021/03/16 12:40:24;;;;;;;2.10;1.17;;;9.00;97.00;;;;;;5108464;27;20547;-76
2021/03/16 12:42:52;;;;;;;4.37;2.20;;;9.10;99.90;;;;;;5106628;27;20503;-74
2021/03/16 12:45:19;;;;;;;1.63;1.13;;;9.30;99.90;;;;;;5128816;27;20456;-76
2021/03/16 12:47:46;;;;;;;2.50;1.30;;;9.40;97.30;;;;;;5100939;27;20460;-77
2021/03/16 12:50:15;;;;;;;2.40;0.97;;;9.40;92.90;;;;;;5100464;27;20936;-78
2021/03/16 12:52:42;;;;;;;1.70;1.10;;;9.50;90.70;;;;;;5104886;27;20457;-77
2021/03/16 12:55:11;;;;;;;1.80;1.00;;;9.40;83.80;;;;;;5121331;27;20458;-79
2021/03/16 12:57:38;;;;;;;3.23;1.30;;;9.40;83.00;;;;;;5105044;27;21197;-78
2021/03/16 13:00:08;;;;;;;1.40;1.00;;;9.40;93.80;;;;;;5122066;27;20954;-79
2021/03/16 13:02:35;;;;;;;1.30;1.00;;;9.30;78.40;;;;;;5108379;27;20465;-77
2021/03/16 13:05:06;;;;;;;1.70;1.60;;;9.40;83.80;;;;;;5122739;27;20511;-77
2021/03/16 13:07:34;;;;;;;1.87;1.10;;;9.40;78.50;;;;;;5107417;27;20454;-76